sensor_id;sensor_type;location;lat;lon;timestamp;P1;durP1;ratioP1;P2;durP2;ratioP2
4517;SDS011;2271;49.464;11.070;2022-07-15T00:00:12;2.67;;;1.33;;
4517;SDS011;2271;49.464;11.070;2022-07-15T00:02:39;3.55;;;1.40;;
4517;SDS011;2271;49.464;11.070;2022-07-15T00:05:05;5.47;;;2.15;;
4517;SDS011;2271;49.464;11.070;2022-07-15T00:07:32;1.38;;;1.20;;
4517;SDS011;2271;49.464;11.070;2022-07-15T00:09:58;2.00;;;1.50;;
4517;SDS011;2271;49.464;11.070;2022-07-15T00:12:42;4.78;;;1.30;;
4517;SDS011;2271;49.464;11.070;2022-07-15T00:15:16;9.55;;;1.92;;
4517;SDS011;2271;49.464;11.070;2022-07-15T00:17:43;3.72;;;1.42;;
4517;SDS011;2271;49.464;11.070;2022-07-15T00:20:10;2.50;;;1.67;;
4517;SDS011;2271;49.464;11.070;2022-07-15T00:22:37;1.98;;;1.60;;
4517;SDS011;2271;49.464;11.070;2022-07-15T00:25:03;2.85;;;1.50;;
4517;SDS011;2271;49.464;11.070;2022-07-15T00:27:29;2.60;;;1.40;;
4517;SDS011;2271;49.464;11.070;2022-07-15T00:29:55;4.55;;;1.40;;
4517;SDS011;2271;49.464;11.070;2022-07-15T00:32:21;3.33;;;1.15;;
4517;SDS011;2271;49.464;11.070;2022-07-15T00:34:47;5.57;;;1.50;;
4517;SDS011;2271;49.464;11.070;2022-07-15T00:37:13;1.55;;;1.15;;
4517;SDS011;2271;49.464;11.070;2022-07-15T00:39:38;5.38;;;1.30;;
4517;SDS011;2271;49.464;11.070;2022-07-15T00:42:04;6.75;;;1.83;;
4517;SDS011;2271;49.464;11.070;2022-07-15T00:44:30;1.48;;;1.00;;
4517;SDS011;2271;49.464;11.070;2022-07-15T00:46:56;3.22;;;1.30;;
4517;SDS011;2271;49.464;11.070;2022-07-15T00:49:23;5.40;;;1.60;;
4517;SDS011;2271;49.464;11.070;2022-07-15T00:51:50;3.70;;;1.50;;
4517;SDS011;2271;49.464;11.070;2022-07-15T00:54:16;6.13;;;1.25;;
4517;SDS011;2271;49.464;11.070;2022-07-15T00:56:48;2.65;;;1.27;;
4517;SDS011;2271;49.464;11.070;2022-07-15T00:59:17;2.78;;;1.42;;
4517;SDS011;2271;49.464;11.070;2022-07-15T01:01:44;8.43;;;1.40;;
4517;SDS011;2271;49.464;11.070;2022-07-15T01:04:11;2.67;;;1.42;;
4517;SDS011;2271;49.464;11.070;2022-07-15T01:06:38;1.48;;;1.38;;
4517;SDS011;2271;49.464;11.070;2022-07-15T01:09:04;4.38;;;1.35;;
4517;SDS011;2271;49.464;11.070;2022-07-15T01:11:30;1.85;;;1.40;;
4517;SDS011;2271;49.464;11.070;2022-07-15T01:13:58;5.25;;;1.70;;
4517;SDS011;2271;49.464;11.070;2022-07-15T01:16:25;5.50;;;1.70;;
4517;SDS011;2271;49.464;11.070;2022-07-15T01:18:51;5.85;;;1.23;;
4517;SDS011;2271;49.464;11.070;2022-07-15T01:21:17;2.53;;;1.40;;
4517;SDS011;2271;49.464;11.070;2022-07-15T01:23:43;2.22;;;1.65;;
4517;SDS011;2271;49.464;11.070;2022-07-15T01:26:09;2.42;;;1.40;;
4517;SDS011;2271;49.464;11.070;2022-07-15T01:28:36;2.00;;;1.52;;
4517;SDS011;2271;49.464;11.070;2022-07-15T01:31:02;4.20;;;1.25;;
4517;SDS011;2271;49.464;11.070;2022-07-15T01:33:28;2.97;;;1.33;;
4517;SDS011;2271;49.464;11.070;2022-07-15T01:35:55;5.78;;;1.42;;
4517;SDS011;2271;49.464;11.070;2022-07-15T01:38:21;10.25;;;1.58;;
4517;SDS011;2271;49.464;11.070;2022-07-15T01:40:46;8.45;;;1.92;;
4517;SDS011;2271;49.464;11.070;2022-07-15T01:43:12;2.35;;;1.33;;
4517;SDS011;2271;49.464;11.070;2022-07-15T01:45:41;6.10;;;1.20;;
4517;SDS011;2271;49.464;11.070;2022-07-15T01:48:08;2.35;;;1.35;;
4517;SDS011;2271;49.464;11.070;2022-07-15T01:50:55;5.88;;;1.70;;
4517;SDS011;2271;49.464;11.070;2022-07-15T01:53:21;4.72;;;1.58;;
4517;SDS011;2271;49.464;11.070;2022-07-15T01:55:47;3.13;;;1.25;;
4517;SDS011;2271;49.464;11.070;2022-07-15T01:58:12;3.95;;;1.40;;
4517;SDS011;2271;49.464;11.070;2022-07-15T02:00:38;7.28;;;1.85;;
4517;SDS011;2271;49.464;11.070;2022-07-15T02:03:04;2.28;;;1.52;;
4517;SDS011;2271;49.464;11.070;2022-07-15T02:05:29;2.20;;;1.52;;
4517;SDS011;2271;49.464;11.070;2022-07-15T02:07:55;4.78;;;1.50;;
4517;SDS011;2271;49.464;11.070;2022-07-15T02:10:20;4.60;;;1.42;;
4517;SDS011;2271;49.464;11.070;2022-07-15T02:12:46;2.50;;;1.55;;
4517;SDS011;2271;49.464;11.070;2022-07-15T02:15:12;5.55;;;1.63;;
4517;SDS011;2271;49.464;11.070;2022-07-15T02:17:37;2.53;;;1.60;;
4517;SDS011;2271;49.464;11.070;2022-07-15T02:20:03;5.85;;;2.10;;
4517;SDS011;2271;49.464;11.070;2022-07-15T02:22:29;4.15;;;1.50;;
4517;SDS011;2271;49.464;11.070;2022-07-15T02:24:55;1.75;;;1.20;;
4517;SDS011;2271;49.464;11.070;2022-07-15T02:27:20;4.03;;;1.35;;
4517;SDS011;2271;49.464;11.070;2022-07-15T02:29:46;4.88;;;1.50;;
4517;SDS011;2271;49.464;11.070;2022-07-15T02:32:11;4.97;;;1.40;;
4517;SDS011;2271;49.464;11.070;2022-07-15T02:34:37;3.63;;;1.55;;
4517;SDS011;2271;49.464;11.070;2022-07-15T02:37:03;2.67;;;1.40;;
4517;SDS011;2271;49.464;11.070;2022-07-15T02:39:28;2.65;;;1.52;;
4517;SDS011;2271;49.464;11.070;2022-07-15T02:41:55;3.50;;;1.80;;
4517;SDS011;2271;49.464;11.070;2022-07-15T02:44:21;2.92;;;1.60;;
4517;SDS011;2271;49.464;11.070;2022-07-15T02:46:46;4.20;;;1.67;;
4517;SDS011;2271;49.464;11.070;2022-07-15T02:49:12;2.50;;;1.30;;
4517;SDS011;2271;49.464;11.070;2022-07-15T02:51:37;3.00;;;1.52;;
4517;SDS011;2271;49.464;11.070;2022-07-15T02:54:03;3.08;;;1.27;;
4517;SDS011;2271;49.464;11.070;2022-07-15T02:56:29;4.32;;;1.40;;
4517;SDS011;2271;49.464;11.070;2022-07-15T02:58:54;4.45;;;1.40;;
4517;SDS011;2271;49.464;11.070;2022-07-15T03:01:21;3.97;;;1.27;;
4517;SDS011;2271;49.464;11.070;2022-07-15T03:03:46;4.07;;;1.23;;
4517;SDS011;2271;49.464;11.070;2022-07-15T03:06:12;1.85;;;1.63;;
4517;SDS011;2271;49.464;11.070;2022-07-15T03:08:37;3.75;;;1.73;;
4517;SDS011;2271;49.464;11.070;2022-07-15T03:11:03;2.40;;;1.35;;
4517;SDS011;2271;49.464;11.070;2022-07-15T03:13:29;3.97;;;1.30;;
4517;SDS011;2271;49.464;11.070;2022-07-15T03:15:54;3.25;;;1.52;;
4517;SDS011;2271;49.464;11.070;2022-07-15T03:18:20;3.03;;;1.58;;
4517;SDS011;2271;49.464;11.070;2022-07-15T03:20:46;4.43;;;1.58;;
4517;SDS011;2271;49.464;11.070;2022-07-15T03:23:12;5.65;;;1.73;;
4517;SDS011;2271;49.464;11.070;2022-07-15T03:25:37;2.92;;;1.58;;
4517;SDS011;2271;49.464;11.070;2022-07-15T03:28:03;3.75;;;1.90;;
4517;SDS011;2271;49.464;11.070;2022-07-15T03:30:29;3.38;;;1.35;;
4517;SDS011;2271;49.464;11.070;2022-07-15T03:32:54;3.35;;;1.92;;
4517;SDS011;2271;49.464;11.070;2022-07-15T03:35:20;2.33;;;1.60;;
4517;SDS011;2271;49.464;11.070;2022-07-15T03:37:46;3.40;;;1.90;;
4517;SDS011;2271;49.464;11.070;2022-07-15T03:40:12;3.42;;;1.80;;
4517;SDS011;2271;49.464;11.070;2022-07-15T03:42:38;13.43;;;2.20;;
4517;SDS011;2271;49.464;11.070;2022-07-15T03:45:03;3.58;;;1.75;;
4517;SDS011;2271;49.464;11.070;2022-07-15T03:47:29;5.28;;;2.05;;
4517;SDS011;2271;49.464;11.070;2022-07-15T03:49:55;4.60;;;1.73;;
4517;SDS011;2271;49.464;11.070;2022-07-15T03:52:21;4.15;;;1.55;;
4517;SDS011;2271;49.464;11.070;2022-07-15T03:54:46;2.75;;;2.05;;
4517;SDS011;2271;49.464;11.070;2022-07-15T03:57:12;3.55;;;2.03;;
4517;SDS011;2271;49.464;11.070;2022-07-15T03:59:38;2.78;;;1.73;;
4517;SDS011;2271;49.464;11.070;2022-07-15T04:02:03;2.25;;;1.88;;
4517;SDS011;2271;49.464;11.070;2022-07-15T04:04:29;3.00;;;2.17;;
4517;SDS011;2271;49.464;11.070;2022-07-15T04:06:54;4.05;;;2.22;;
4517;SDS011;2271;49.464;11.070;2022-07-15T04:09:20;4.90;;;2.03;;
4517;SDS011;2271;49.464;11.070;2022-07-15T04:11:46;5.43;;;2.33;;
4517;SDS011;2271;49.464;11.070;2022-07-15T04:14:12;11.38;;;3.42;;
4517;SDS011;2271;49.464;11.070;2022-07-15T04:16:38;8.80;;;3.10;;
4517;SDS011;2271;49.464;11.070;2022-07-15T04:19:05;11.88;;;4.28;;
4517;SDS011;2271;49.464;11.070;2022-07-15T04:21:31;7.95;;;3.22;;
4517;SDS011;2271;49.464;11.070;2022-07-15T04:23:58;7.30;;;2.97;;
4517;SDS011;2271;49.464;11.070;2022-07-15T04:26:24;5.03;;;2.47;;
4517;SDS011;2271;49.464;11.070;2022-07-15T04:28:49;7.82;;;2.60;;
4517;SDS011;2271;49.464;11.070;2022-07-15T04:31:15;3.40;;;2.17;;
4517;SDS011;2271;49.464;11.070;2022-07-15T04:33:41;4.75;;;2.67;;
4517;SDS011;2271;49.464;11.070;2022-07-15T04:36:06;6.25;;;2.33;;
4517;SDS011;2271;49.464;11.070;2022-07-15T04:38:32;4.35;;;2.15;;
4517;SDS011;2271;49.464;11.070;2022-07-15T04:40:58;5.25;;;2.50;;
4517;SDS011;2271;49.464;11.070;2022-07-15T04:43:23;4.70;;;2.28;;
4517;SDS011;2271;49.464;11.070;2022-07-15T04:45:49;3.80;;;2.20;;
4517;SDS011;2271;49.464;11.070;2022-07-15T04:48:15;5.82;;;2.33;;
4517;SDS011;2271;49.464;11.070;2022-07-15T04:51:00;5.03;;;2.80;;
4517;SDS011;2271;49.464;11.070;2022-07-15T04:53:25;7.40;;;2.78;;
4517;SDS011;2271;49.464;11.070;2022-07-15T04:55:51;2.63;;;2.25;;
4517;SDS011;2271;49.464;11.070;2022-07-15T04:58:17;8.68;;;2.70;;
4517;SDS011;2271;49.464;11.070;2022-07-15T05:00:43;6.80;;;2.47;;
4517;SDS011;2271;49.464;11.070;2022-07-15T05:03:09;6.53;;;2.47;;
4517;SDS011;2271;49.464;11.070;2022-07-15T05:05:35;4.05;;;2.42;;
4517;SDS011;2271;49.464;11.070;2022-07-15T05:08:01;4.35;;;2.53;;
4517;SDS011;2271;49.464;11.070;2022-07-15T05:10:28;4.05;;;2.20;;
4517;SDS011;2271;49.464;11.070;2022-07-15T05:12:54;3.22;;;2.00;;
4517;SDS011;2271;49.464;11.070;2022-07-15T05:15:19;7.35;;;2.72;;
4517;SDS011;2271;49.464;11.070;2022-07-15T05:17:45;4.00;;;2.05;;
4517;SDS011;2271;49.464;11.070;2022-07-15T05:20:11;5.72;;;2.25;;
4517;SDS011;2271;49.464;11.070;2022-07-15T05:22:36;4.32;;;2.40;;
4517;SDS011;2271;49.464;11.070;2022-07-15T05:25:02;4.32;;;2.42;;
4517;SDS011;2271;49.464;11.070;2022-07-15T05:27:28;3.00;;;1.85;;
4517;SDS011;2271;49.464;11.070;2022-07-15T05:29:54;4.88;;;2.47;;
4517;SDS011;2271;49.464;11.070;2022-07-15T05:32:19;9.73;;;2.85;;
4517;SDS011;2271;49.464;11.070;2022-07-15T05:34:45;3.85;;;2.45;;
4517;SDS011;2271;49.464;11.070;2022-07-15T05:37:11;7.38;;;3.10;;
4517;SDS011;2271;49.464;11.070;2022-07-15T05:39:37;4.25;;;2.10;;
4517;SDS011;2271;49.464;11.070;2022-07-15T05:42:18;3.38;;;1.98;;
4517;SDS011;2271;49.464;11.070;2022-07-15T05:44:44;4.47;;;2.85;;
4517;SDS011;2271;49.464;11.070;2022-07-15T05:47:10;16.00;;;2.95;;
4517;SDS011;2271;49.464;11.070;2022-07-15T05:49:35;5.43;;;2.50;;
4517;SDS011;2271;49.464;11.070;2022-07-15T05:52:01;6.43;;;2.63;;
4517;SDS011;2271;49.464;11.070;2022-07-15T05:54:27;9.88;;;2.90;;
4517;SDS011;2271;49.464;11.070;2022-07-15T05:56:52;7.35;;;2.75;;
4517;SDS011;2271;49.464;11.070;2022-07-15T05:59:18;5.40;;;3.03;;
4517;SDS011;2271;49.464;11.070;2022-07-15T06:01:43;3.17;;;2.20;;
4517;SDS011;2271;49.464;11.070;2022-07-15T06:04:09;4.28;;;2.60;;
4517;SDS011;2271;49.464;11.070;2022-07-15T06:06:35;4.00;;;2.58;;
4517;SDS011;2271;49.464;11.070;2022-07-15T06:09:00;3.78;;;2.60;;
4517;SDS011;2271;49.464;11.070;2022-07-15T06:11:26;10.45;;;2.53;;
4517;SDS011;2271;49.464;11.070;2022-07-15T06:13:52;7.93;;;2.25;;
4517;SDS011;2271;49.464;11.070;2022-07-15T06:16:17;7.75;;;2.00;;
4517;SDS011;2271;49.464;11.070;2022-07-15T06:18:43;4.75;;;1.85;;
4517;SDS011;2271;49.464;11.070;2022-07-15T06:21:09;3.08;;;1.98;;
4517;SDS011;2271;49.464;11.070;2022-07-15T06:23:36;6.78;;;1.77;;
4517;SDS011;2271;49.464;11.070;2022-07-15T06:26:02;2.60;;;1.45;;
4517;SDS011;2271;49.464;11.070;2022-07-15T06:28:28;2.42;;;1.70;;
4517;SDS011;2271;49.464;11.070;2022-07-15T06:30:54;6.03;;;1.70;;
4517;SDS011;2271;49.464;11.070;2022-07-15T06:33:19;4.03;;;1.52;;
4517;SDS011;2271;49.464;11.070;2022-07-15T06:35:45;3.47;;;1.52;;
4517;SDS011;2271;49.464;11.070;2022-07-15T06:38:11;2.30;;;1.40;;
4517;SDS011;2271;49.464;11.070;2022-07-15T06:40:36;5.05;;;1.92;;
4517;SDS011;2271;49.464;11.070;2022-07-15T06:43:02;6.20;;;1.50;;
4517;SDS011;2271;49.464;11.070;2022-07-15T06:45:28;9.80;;;1.67;;
4517;SDS011;2271;49.464;11.070;2022-07-15T06:47:54;2.83;;;1.35;;
4517;SDS011;2271;49.464;11.070;2022-07-15T06:50:19;2.75;;;1.42;;
4517;SDS011;2271;49.464;11.070;2022-07-15T06:52:47;3.72;;;2.05;;
4517;SDS011;2271;49.464;11.070;2022-07-15T06:55:13;4.25;;;1.25;;
4517;SDS011;2271;49.464;11.070;2022-07-15T06:57:39;11.05;;;1.70;;
4517;SDS011;2271;49.464;11.070;2022-07-15T07:00:05;2.35;;;1.42;;
4517;SDS011;2271;49.464;11.070;2022-07-15T07:02:32;3.03;;;1.77;;
4517;SDS011;2271;49.464;11.070;2022-07-15T07:04:58;4.57;;;2.15;;
4517;SDS011;2271;49.464;11.070;2022-07-15T07:07:25;5.72;;;1.60;;
4517;SDS011;2271;49.464;11.070;2022-07-15T07:09:50;6.13;;;1.60;;
4517;SDS011;2271;49.464;11.070;2022-07-15T07:12:16;3.35;;;1.90;;
4517;SDS011;2271;49.464;11.070;2022-07-15T07:14:42;5.22;;;2.00;;
4517;SDS011;2271;49.464;11.070;2022-07-15T07:17:08;2.05;;;1.50;;
4517;SDS011;2271;49.464;11.070;2022-07-15T07:19:33;2.10;;;1.35;;
4517;SDS011;2271;49.464;11.070;2022-07-15T07:21:59;2.80;;;1.77;;
4517;SDS011;2271;49.464;11.070;2022-07-15T07:24:25;1.95;;;1.60;;
4517;SDS011;2271;49.464;11.070;2022-07-15T07:26:50;5.78;;;1.80;;
4517;SDS011;2271;49.464;11.070;2022-07-15T07:29:16;4.90;;;1.70;;
4517;SDS011;2271;49.464;11.070;2022-07-15T07:31:47;1.85;;;1.42;;
4517;SDS011;2271;49.464;11.070;2022-07-15T07:34:14;2.40;;;1.33;;
4517;SDS011;2271;49.464;11.070;2022-07-15T07:36:40;3.20;;;1.60;;
4517;SDS011;2271;49.464;11.070;2022-07-15T07:39:06;2.83;;;1.13;;
4517;SDS011;2271;49.464;11.070;2022-07-15T07:41:32;2.30;;;1.42;;
4517;SDS011;2271;49.464;11.070;2022-07-15T07:43:57;4.75;;;1.65;;
4517;SDS011;2271;49.464;11.070;2022-07-15T07:46:23;2.22;;;1.38;;
4517;SDS011;2271;49.464;11.070;2022-07-15T07:48:49;2.90;;;1.27;;
4517;SDS011;2271;49.464;11.070;2022-07-15T07:51:16;3.17;;;1.52;;
4517;SDS011;2271;49.464;11.070;2022-07-15T07:53:42;1.58;;;1.05;;
4517;SDS011;2271;49.464;11.070;2022-07-15T07:56:08;2.55;;;1.42;;
4517;SDS011;2271;49.464;11.070;2022-07-15T07:58:34;2.53;;;0.90;;
4517;SDS011;2271;49.464;11.070;2022-07-15T08:01:00;3.80;;;1.00;;
4517;SDS011;2271;49.464;11.070;2022-07-15T08:03:26;2.92;;;1.33;;
4517;SDS011;2271;49.464;11.070;2022-07-15T08:05:55;3.63;;;1.30;;
4517;SDS011;2271;49.464;11.070;2022-07-15T08:08:20;2.20;;;1.17;;
4517;SDS011;2271;49.464;11.070;2022-07-15T08:10:49;5.15;;;1.65;;
4517;SDS011;2271;49.464;11.070;2022-07-15T08:13:17;2.58;;;1.30;;
4517;SDS011;2271;49.464;11.070;2022-07-15T08:15:43;1.98;;;1.08;;
4517;SDS011;2271;49.464;11.070;2022-07-15T08:18:11;1.25;;;0.90;;
4517;SDS011;2271;49.464;11.070;2022-07-15T08:20:37;3.92;;;1.52;;
4517;SDS011;2271;49.464;11.070;2022-07-15T08:23:03;2.38;;;1.13;;
4517;SDS011;2271;49.464;11.070;2022-07-15T08:25:30;0.98;;;0.82;;
4517;SDS011;2271;49.464;11.070;2022-07-15T08:27:58;2.92;;;1.20;;
4517;SDS011;2271;49.464;11.070;2022-07-15T08:30:25;3.75;;;1.10;;
4517;SDS011;2271;49.464;11.070;2022-07-15T08:32:51;3.88;;;1.33;;
4517;SDS011;2271;49.464;11.070;2022-07-15T08:35:17;4.65;;;1.50;;
4517;SDS011;2271;49.464;11.070;2022-07-15T08:37:43;5.05;;;1.77;;
4517;SDS011;2271;49.464;11.070;2022-07-15T08:40:09;4.07;;;1.30;;
4517;SDS011;2271;49.464;11.070;2022-07-15T08:42:37;1.83;;;1.20;;
4517;SDS011;2271;49.464;11.070;2022-07-15T08:45:05;2.67;;;1.10;;
4517;SDS011;2271;49.464;11.070;2022-07-15T08:47:31;1.77;;;1.10;;
4517;SDS011;2271;49.464;11.070;2022-07-15T08:49:58;4.47;;;1.27;;
4517;SDS011;2271;49.464;11.070;2022-07-15T08:52:26;2.25;;;1.13;;
4517;SDS011;2271;49.464;11.070;2022-07-15T08:54:52;5.22;;;1.88;;
4517;SDS011;2271;49.464;11.070;2022-07-15T08:57:18;2.13;;;1.20;;
4517;SDS011;2271;49.464;11.070;2022-07-15T08:59:44;3.85;;;1.30;;
4517;SDS011;2271;49.464;11.070;2022-07-15T09:02:13;2.97;;;1.10;;
4517;SDS011;2271;49.464;11.070;2022-07-15T09:07:52;2.65;;;1.13;;
4517;SDS011;2271;49.464;11.070;2022-07-15T09:10:19;1.35;;;1.08;;
4517;SDS011;2271;49.464;11.070;2022-07-15T09:12:49;2.63;;;1.00;;
4517;SDS011;2271;49.464;11.070;2022-07-15T09:15:32;5.22;;;1.48;;
4517;SDS011;2271;49.464;11.070;2022-07-15T09:18:10;1.70;;;1.15;;
4517;SDS011;2271;49.464;11.070;2022-07-15T09:20:39;2.28;;;1.20;;
4517;SDS011;2271;49.464;11.070;2022-07-15T09:23:05;2.80;;;1.17;;
4517;SDS011;2271;49.464;11.070;2022-07-15T09:25:32;3.47;;;1.23;;
4517;SDS011;2271;49.464;11.070;2022-07-15T09:27:59;1.75;;;1.33;;
4517;SDS011;2271;49.464;11.070;2022-07-15T09:30:36;2.80;;;1.45;;
4517;SDS011;2271;49.464;11.070;2022-07-15T09:33:23;2.78;;;1.08;;
4517;SDS011;2271;49.464;11.070;2022-07-15T09:44:35;1.85;;;1.05;;
4517;SDS011;2271;49.464;11.070;2022-07-15T09:46:43;1.88;;;1.27;;
4517;SDS011;2271;49.464;11.070;2022-07-15T09:49:12;2.92;;;1.30;;
4517;SDS011;2271;49.464;11.070;2022-07-15T09:51:47;2.25;;;1.30;;
4517;SDS011;2271;49.464;11.070;2022-07-15T09:54:13;3.60;;;1.40;;
4517;SDS011;2271;49.464;11.070;2022-07-15T09:56:40;2.25;;;1.25;;
4517;SDS011;2271;49.464;11.070;2022-07-15T09:59:06;1.40;;;1.15;;
4517;SDS011;2271;49.464;11.070;2022-07-15T10:01:33;1.63;;;1.20;;
4517;SDS011;2271;49.464;11.070;2022-07-15T10:04:00;3.58;;;1.23;;
4517;SDS011;2271;49.464;11.070;2022-07-15T10:06:26;5.88;;;1.50;;
4517;SDS011;2271;49.464;11.070;2022-07-15T10:08:53;1.58;;;1.02;;
4517;SDS011;2271;49.464;11.070;2022-07-15T10:11:19;1.88;;;1.10;;
4517;SDS011;2271;49.464;11.070;2022-07-15T10:18:59;2.80;;;1.60;;
4517;SDS011;2271;49.464;11.070;2022-07-15T10:22:35;4.80;;;1.23;;
4517;SDS011;2271;49.464;11.070;2022-07-15T10:30:05;3.50;;;1.30;;
4517;SDS011;2271;49.464;11.070;2022-07-15T10:38:19;1.88;;;1.10;;
4517;SDS011;2271;49.464;11.070;2022-07-15T10:48:47;1.90;;;1.20;;
4517;SDS011;2271;49.464;11.070;2022-07-15T10:56:44;3.13;;;1.67;;
4517;SDS011;2271;49.464;11.070;2022-07-15T11:01:46;3.55;;;1.33;;
4517;SDS011;2271;49.464;11.070;2022-07-15T11:04:35;1.23;;;1.13;;
4517;SDS011;2271;49.464;11.070;2022-07-15T11:12:23;3.95;;;1.60;;
4517;SDS011;2271;49.464;11.070;2022-07-15T11:20:10;2.65;;;1.55;;
4517;SDS011;2271;49.464;11.070;2022-07-15T11:22:38;2.67;;;1.40;;
4517;SDS011;2271;49.464;11.070;2022-07-15T11:25:18;3.30;;;1.77;;
4517;SDS011;2271;49.464;11.070;2022-07-15T11:27:59;7.13;;;1.80;;
4517;SDS011;2271;49.464;11.070;2022-07-15T11:30:34;2.33;;;1.42;;
4517;SDS011;2271;49.464;11.070;2022-07-15T11:33:03;3.05;;;1.30;;
4517;SDS011;2271;49.464;11.070;2022-07-15T11:35:30;2.25;;;1.35;;
4517;SDS011;2271;49.464;11.070;2022-07-15T11:38:07;1.52;;;1.15;;
4517;SDS011;2271;49.464;11.070;2022-07-15T11:40:32;1.55;;;1.30;;
4517;SDS011;2271;49.464;11.070;2022-07-15T11:43:19;2.80;;;1.38;;
4517;SDS011;2271;49.464;11.070;2022-07-15T11:46:04;2.35;;;1.20;;
4517;SDS011;2271;49.464;11.070;2022-07-15T11:48:37;5.10;;;1.13;;
4517;SDS011;2271;49.464;11.070;2022-07-15T11:51:04;2.35;;;1.27;;
4517;SDS011;2271;49.464;11.070;2022-07-15T11:53:41;1.95;;;1.27;;
4517;SDS011;2271;49.464;11.070;2022-07-15T11:56:09;2.50;;;1.50;;
4517;SDS011;2271;49.464;11.070;2022-07-15T11:58:40;4.60;;;1.60;;
4517;SDS011;2271;49.464;11.070;2022-07-15T12:01:16;2.95;;;1.48;;
4517;SDS011;2271;49.464;11.070;2022-07-15T12:03:48;3.67;;;1.70;;
4517;SDS011;2271;49.464;11.070;2022-07-15T12:06:17;2.13;;;1.23;;
4517;SDS011;2271;49.464;11.070;2022-07-15T12:08:56;4.30;;;1.30;;
4517;SDS011;2271;49.464;11.070;2022-07-15T12:11:27;1.63;;;1.40;;
4517;SDS011;2271;49.464;11.070;2022-07-15T12:14:11;7.13;;;1.60;;
4517;SDS011;2271;49.464;11.070;2022-07-15T12:16:43;2.80;;;1.40;;
4517;SDS011;2271;49.464;11.070;2022-07-15T12:21:46;2.33;;;1.15;;
4517;SDS011;2271;49.464;11.070;2022-07-15T12:24:20;2.40;;;1.30;;
4517;SDS011;2271;49.464;11.070;2022-07-15T12:29:17;2.20;;;1.48;;
4517;SDS011;2271;49.464;11.070;2022-07-15T12:31:51;1.73;;;1.42;;
4517;SDS011;2271;49.464;11.070;2022-07-15T12:34:19;1.73;;;1.30;;
4517;SDS011;2271;49.464;11.070;2022-07-15T12:36:53;1.95;;;1.35;;
4517;SDS011;2271;49.464;11.070;2022-07-15T12:39:20;4.07;;;1.35;;
4517;SDS011;2271;49.464;11.070;2022-07-15T12:42:07;1.52;;;1.40;;
4517;SDS011;2271;49.464;11.070;2022-07-15T12:44:32;2.53;;;1.60;;
4517;SDS011;2271;49.464;11.070;2022-07-15T12:47:00;1.73;;;1.20;;
4517;SDS011;2271;49.464;11.070;2022-07-15T12:54:50;3.03;;;1.20;;
4517;SDS011;2271;49.464;11.070;2022-07-15T12:57:32;1.90;;;1.25;;
4517;SDS011;2271;49.464;11.070;2022-07-15T13:00:02;4.28;;;1.10;;
4517;SDS011;2271;49.464;11.070;2022-07-15T13:02:55;3.47;;;1.33;;
4517;SDS011;2271;49.464;11.070;2022-07-15T13:05:21;1.92;;;0.82;;
4517;SDS011;2271;49.464;11.070;2022-07-15T13:07:47;1.83;;;1.38;;
4517;SDS011;2271;49.464;11.070;2022-07-15T13:10:12;2.40;;;1.10;;
4517;SDS011;2271;49.464;11.070;2022-07-15T13:12:38;2.08;;;1.73;;
4517;SDS011;2271;49.464;11.070;2022-07-15T13:15:04;2.92;;;1.33;;
4517;SDS011;2271;49.464;11.070;2022-07-15T13:17:30;2.47;;;1.80;;
4517;SDS011;2271;49.464;11.070;2022-07-15T13:19:56;9.20;;;1.20;;
4517;SDS011;2271;49.464;11.070;2022-07-15T13:22:22;4.13;;;1.25;;
4517;SDS011;2271;49.464;11.070;2022-07-15T13:24:47;4.40;;;1.38;;
4517;SDS011;2271;49.464;11.070;2022-07-15T13:27:13;2.55;;;1.35;;
4517;SDS011;2271;49.464;11.070;2022-07-15T13:29:39;2.28;;;1.30;;
4517;SDS011;2271;49.464;11.070;2022-07-15T13:32:05;2.10;;;1.60;;
4517;SDS011;2271;49.464;11.070;2022-07-15T13:34:31;3.28;;;1.30;;
4517;SDS011;2271;49.464;11.070;2022-07-15T13:36:56;3.00;;;1.33;;
4517;SDS011;2271;49.464;11.070;2022-07-15T13:39:22;1.10;;;1.02;;
4517;SDS011;2271;49.464;11.070;2022-07-15T13:41:48;3.80;;;1.17;;
4517;SDS011;2271;49.464;11.070;2022-07-15T13:44:13;1.42;;;1.15;;
4517;SDS011;2271;49.464;11.070;2022-07-15T13:46:39;2.70;;;1.23;;
4517;SDS011;2271;49.464;11.070;2022-07-15T13:49:05;2.88;;;1.10;;
4517;SDS011;2271;49.464;11.070;2022-07-15T13:51:30;4.15;;;1.40;;
4517;SDS011;2271;49.464;11.070;2022-07-15T13:53:56;1.77;;;1.10;;
4517;SDS011;2271;49.464;11.070;2022-07-15T13:56:23;7.22;;;1.38;;
4517;SDS011;2271;49.464;11.070;2022-07-15T13:58:49;2.03;;;1.23;;
4517;SDS011;2271;49.464;11.070;2022-07-15T14:01:15;4.10;;;1.50;;
4517;SDS011;2271;49.464;11.070;2022-07-15T14:03:41;3.35;;;1.50;;
4517;SDS011;2271;49.464;11.070;2022-07-15T14:06:07;2.28;;;1.45;;
4517;SDS011;2271;49.464;11.070;2022-07-15T14:08:33;3.40;;;1.55;;
4517;SDS011;2271;49.464;11.070;2022-07-15T14:10:59;4.05;;;1.13;;
4517;SDS011;2271;49.464;11.070;2022-07-15T14:13:25;3.75;;;1.40;;
4517;SDS011;2271;49.464;11.070;2022-07-15T14:15:52;1.73;;;1.10;;
4517;SDS011;2271;49.464;11.070;2022-07-15T14:18:17;3.80;;;1.00;;
4517;SDS011;2271;49.464;11.070;2022-07-15T14:20:43;2.00;;;1.42;;
4517;SDS011;2271;49.464;11.070;2022-07-15T14:23:12;3.80;;;2.05;;
4517;SDS011;2271;49.464;11.070;2022-07-15T14:25:38;8.23;;;1.73;;
4517;SDS011;2271;49.464;11.070;2022-07-15T14:28:03;3.80;;;1.20;;
4517;SDS011;2271;49.464;11.070;2022-07-15T14:30:29;5.10;;;1.23;;
4517;SDS011;2271;49.464;11.070;2022-07-15T14:32:55;4.22;;;1.30;;
4517;SDS011;2271;49.464;11.070;2022-07-15T14:35:21;3.30;;;1.33;;
4517;SDS011;2271;49.464;11.070;2022-07-15T14:37:47;2.33;;;1.42;;
4517;SDS011;2271;49.464;11.070;2022-07-15T14:40:13;2.53;;;1.40;;
4517;SDS011;2271;49.464;11.070;2022-07-15T14:42:39;6.07;;;1.50;;
4517;SDS011;2271;49.464;11.070;2022-07-15T14:45:05;4.75;;;1.58;;
4517;SDS011;2271;49.464;11.070;2022-07-15T14:47:32;3.03;;;1.45;;
4517;SDS011;2271;49.464;11.070;2022-07-15T14:49:57;2.45;;;1.50;;
4517;SDS011;2271;49.464;11.070;2022-07-15T14:52:23;1.70;;;1.27;;
4517;SDS011;2271;49.464;11.070;2022-07-15T14:54:49;1.70;;;1.60;;
4517;SDS011;2271;49.464;11.070;2022-07-15T14:57:15;2.20;;;1.10;;
4517;SDS011;2271;49.464;11.070;2022-07-15T14:59:42;2.05;;;1.30;;
4517;SDS011;2271;49.464;11.070;2022-07-15T15:02:08;2.75;;;1.40;;
4517;SDS011;2271;49.464;11.070;2022-07-15T15:04:35;4.72;;;1.70;;
4517;SDS011;2271;49.464;11.070;2022-07-15T15:07:01;2.10;;;1.40;;
4517;SDS011;2271;49.464;11.070;2022-07-15T15:09:27;2.13;;;1.38;;
4517;SDS011;2271;49.464;11.070;2022-07-15T15:11:53;3.63;;;1.60;;
4517;SDS011;2271;49.464;11.070;2022-07-15T15:14:19;2.83;;;1.83;;
4517;SDS011;2271;49.464;11.070;2022-07-15T15:16:45;3.10;;;2.55;;
4517;SDS011;2271;49.464;11.070;2022-07-15T15:19:11;3.38;;;1.50;;
4517;SDS011;2271;49.464;11.070;2022-07-15T15:21:36;1.10;;;0.95;;
4517;SDS011;2271;49.464;11.070;2022-07-15T15:24:03;2.08;;;1.60;;
4517;SDS011;2271;49.464;11.070;2022-07-15T15:26:28;3.50;;;1.50;;
4517;SDS011;2271;49.464;11.070;2022-07-15T15:28:56;6.72;;;1.30;;
4517;SDS011;2271;49.464;11.070;2022-07-15T15:31:23;2.42;;;1.40;;
4517;SDS011;2271;49.464;11.070;2022-07-15T15:33:51;4.03;;;1.20;;
4517;SDS011;2271;49.464;11.070;2022-07-15T15:36:17;1.02;;;0.90;;
4517;SDS011;2271;49.464;11.070;2022-07-15T15:38:44;2.58;;;1.30;;
4517;SDS011;2271;49.464;11.070;2022-07-15T15:41:10;2.00;;;1.02;;
4517;SDS011;2271;49.464;11.070;2022-07-15T15:43:35;2.20;;;1.13;;
4517;SDS011;2271;49.464;11.070;2022-07-15T15:46:01;2.88;;;1.20;;
4517;SDS011;2271;49.464;11.070;2022-07-15T15:48:27;2.92;;;1.92;;
4517;SDS011;2271;49.464;11.070;2022-07-15T15:50:53;2.30;;;1.63;;
4517;SDS011;2271;49.464;11.070;2022-07-15T15:53:19;3.50;;;1.40;;
4517;SDS011;2271;49.464;11.070;2022-07-15T15:55:45;1.55;;;1.10;;
4517;SDS011;2271;49.464;11.070;2022-07-15T15:58:11;2.97;;;1.30;;
4517;SDS011;2271;49.464;11.070;2022-07-15T16:00:37;4.82;;;1.77;;
4517;SDS011;2271;49.464;11.070;2022-07-15T16:03:03;3.85;;;1.30;;
4517;SDS011;2271;49.464;11.070;2022-07-15T16:05:29;1.63;;;1.30;;